Terminal Aerodrome Forecast
Issued by NWS

Home | Current Version | Previous Version | Text Only | Print | Product List | Glossary On
Versions: 1 2 3 4 5 6 7 8 9 10 11 12 13
697
FTUS45 KRIW 272338
TAFCPR
TAF
KCPR 272338Z 2800/2824 06008KT P6SM FEW080 SCT120
     FM280200 09012G18KT P6SM VCTS SCT070CB BKN120
     FM280700 10009KT P6SM VCSH FEW035 SCT080
     FM282000 04009KT P6SM VCTS SCT060CB BKN120=

USA.gov is the U.S. government's official web portal to all federal, state and local government web resources and services.